sensor_id;sensor_type;location;lat;lon;timestamp;P1;durP1;ratioP1;P2;durP2;ratioP2
22812;SDS011;11573;51.334;3.244;2022-12-11T00:00:49;59.05;;;30.42;;
22812;SDS011;11573;51.334;3.244;2022-12-11T00:03:16;58.35;;;30.33;;
22812;SDS011;11573;51.334;3.244;2022-12-11T00:05:44;59.83;;;28.92;;
22812;SDS011;11573;51.334;3.244;2022-12-11T00:08:11;61.38;;;31.58;;
22812;SDS011;11573;51.334;3.244;2022-12-11T00:10:39;62.70;;;31.15;;
22812;SDS011;11573;51.334;3.244;2022-12-11T00:13:13;58.53;;;28.83;;
22812;SDS011;11573;51.334;3.244;2022-12-11T00:15:40;62.03;;;31.67;;
22812;SDS011;11573;51.334;3.244;2022-12-11T00:18:09;67.50;;;31.60;;
22812;SDS011;11573;51.334;3.244;2022-12-11T00:20:39;60.55;;;30.50;;
22812;SDS011;11573;51.334;3.244;2022-12-11T00:23:06;61.40;;;31.00;;
22812;SDS011;11573;51.334;3.244;2022-12-11T00:25:33;60.20;;;30.92;;
22812;SDS011;11573;51.334;3.244;2022-12-11T00:28:00;62.58;;;30.23;;
22812;SDS011;11573;51.334;3.244;2022-12-11T00:30:26;59.88;;;31.00;;
22812;SDS011;11573;51.334;3.244;2022-12-11T00:32:53;57.08;;;29.30;;
22812;SDS011;11573;51.334;3.244;2022-12-11T00:35:20;60.90;;;30.27;;
22812;SDS011;11573;51.334;3.244;2022-12-11T00:37:47;62.33;;;31.08;;
22812;SDS011;11573;51.334;3.244;2022-12-11T00:40:14;55.15;;;27.65;;
22812;SDS011;11573;51.334;3.244;2022-12-11T00:42:41;67.30;;;31.80;;
22812;SDS011;11573;51.334;3.244;2022-12-11T00:45:08;56.70;;;29.05;;
22812;SDS011;11573;51.334;3.244;2022-12-11T00:47:36;54.80;;;29.00;;
22812;SDS011;11573;51.334;3.244;2022-12-11T00:50:03;53.95;;;28.45;;
22812;SDS011;11573;51.334;3.244;2022-12-11T00:52:30;51.28;;;28.85;;
22812;SDS011;11573;51.334;3.244;2022-12-11T00:54:57;49.35;;;27.52;;
22812;SDS011;11573;51.334;3.244;2022-12-11T00:57:23;50.63;;;27.85;;
22812;SDS011;11573;51.334;3.244;2022-12-11T00:59:50;59.47;;;27.10;;
22812;SDS011;11573;51.334;3.244;2022-12-11T01:02:17;50.55;;;27.15;;
22812;SDS011;11573;51.334;3.244;2022-12-11T01:04:44;53.13;;;27.80;;
22812;SDS011;11573;51.334;3.244;2022-12-11T01:07:11;47.47;;;26.15;;
22812;SDS011;11573;51.334;3.244;2022-12-11T01:09:38;49.22;;;26.65;;
22812;SDS011;11573;51.334;3.244;2022-12-11T01:12:24;47.97;;;27.20;;
22812;SDS011;11573;51.334;3.244;2022-12-11T01:14:53;53.35;;;27.15;;
22812;SDS011;11573;51.334;3.244;2022-12-11T01:17:20;48.85;;;26.33;;
22812;SDS011;11573;51.334;3.244;2022-12-11T01:19:47;53.58;;;27.77;;
22812;SDS011;11573;51.334;3.244;2022-12-11T01:22:14;56.67;;;25.80;;
22812;SDS011;11573;51.334;3.244;2022-12-11T01:24:41;49.30;;;26.13;;
22812;SDS011;11573;51.334;3.244;2022-12-11T01:27:08;49.40;;;25.83;;
22812;SDS011;11573;51.334;3.244;2022-12-11T01:29:35;49.55;;;26.83;;
22812;SDS011;11573;51.334;3.244;2022-12-11T01:32:01;53.53;;;27.65;;
22812;SDS011;11573;51.334;3.244;2022-12-11T01:34:29;51.92;;;27.63;;
22812;SDS011;11573;51.334;3.244;2022-12-11T01:36:56;55.10;;;27.95;;
22812;SDS011;11573;51.334;3.244;2022-12-11T01:39:23;52.83;;;27.20;;
22812;SDS011;11573;51.334;3.244;2022-12-11T01:41:55;53.55;;;27.60;;
22812;SDS011;11573;51.334;3.244;2022-12-11T01:46:52;51.38;;;27.90;;
22812;SDS011;11573;51.334;3.244;2022-12-11T01:49:20;51.17;;;27.25;;
22812;SDS011;11573;51.334;3.244;2022-12-11T01:51:55;56.97;;;28.40;;
22812;SDS011;11573;51.334;3.244;2022-12-11T01:54:24;50.65;;;27.15;;
22812;SDS011;11573;51.334;3.244;2022-12-11T01:56:55;54.53;;;28.25;;
22812;SDS011;11573;51.334;3.244;2022-12-11T01:59:28;53.40;;;26.75;;
22812;SDS011;11573;51.334;3.244;2022-12-11T02:02:06;50.58;;;26.10;;
22812;SDS011;11573;51.334;3.244;2022-12-11T02:04:42;53.92;;;26.83;;
22812;SDS011;11573;51.334;3.244;2022-12-11T02:07:10;49.63;;;25.83;;
22812;SDS011;11573;51.334;3.244;2022-12-11T02:09:38;49.90;;;25.30;;
22812;SDS011;11573;51.334;3.244;2022-12-11T02:15:29;44.78;;;23.10;;
22812;SDS011;11573;51.334;3.244;2022-12-11T02:20:58;40.13;;;21.42;;
22812;SDS011;11573;51.334;3.244;2022-12-11T02:23:43;43.57;;;21.63;;
22812;SDS011;11573;51.334;3.244;2022-12-11T02:26:31;40.72;;;20.67;;
22812;SDS011;11573;51.334;3.244;2022-12-11T02:29:12;45.72;;;21.85;;
22812;SDS011;11573;51.334;3.244;2022-12-11T02:31:49;42.92;;;21.58;;
22812;SDS011;11573;51.334;3.244;2022-12-11T02:34:33;39.28;;;20.77;;
22812;SDS011;11573;51.334;3.244;2022-12-11T02:37:08;40.60;;;21.30;;
22812;SDS011;11573;51.334;3.244;2022-12-11T02:39:49;40.70;;;20.60;;
22812;SDS011;11573;51.334;3.244;2022-12-11T02:42:19;43.38;;;21.75;;
22812;SDS011;11573;51.334;3.244;2022-12-11T02:44:48;46.42;;;21.90;;
22812;SDS011;11573;51.334;3.244;2022-12-11T02:47:17;49.85;;;22.70;;
22812;SDS011;11573;51.334;3.244;2022-12-11T02:49:48;43.95;;;21.67;;
22812;SDS011;11573;51.334;3.244;2022-12-11T02:52:16;47.10;;;22.65;;
22812;SDS011;11573;51.334;3.244;2022-12-11T02:54:46;44.42;;;22.35;;
22812;SDS011;11573;51.334;3.244;2022-12-11T02:57:23;43.33;;;20.80;;
22812;SDS011;11573;51.334;3.244;2022-12-11T03:00:03;46.63;;;21.98;;
22812;SDS011;11573;51.334;3.244;2022-12-11T03:02:31;43.97;;;21.65;;
22812;SDS011;11573;51.334;3.244;2022-12-11T03:04:58;43.38;;;22.13;;
22812;SDS011;11573;51.334;3.244;2022-12-11T03:07:26;42.97;;;22.40;;
22812;SDS011;11573;51.334;3.244;2022-12-11T03:09:58;45.30;;;22.80;;
22812;SDS011;11573;51.334;3.244;2022-12-11T03:12:29;43.70;;;21.55;;
22812;SDS011;11573;51.334;3.244;2022-12-11T03:14:58;44.88;;;21.73;;
22812;SDS011;11573;51.334;3.244;2022-12-11T03:17:29;46.42;;;22.38;;
22812;SDS011;11573;51.334;3.244;2022-12-11T03:20:33;45.28;;;22.63;;
22812;SDS011;11573;51.334;3.244;2022-12-11T03:23:08;45.35;;;22.08;;
22812;SDS011;11573;51.334;3.244;2022-12-11T03:25:58;42.13;;;20.95;;
22812;SDS011;11573;51.334;3.244;2022-12-11T03:28:30;48.05;;;23.58;;
22812;SDS011;11573;51.334;3.244;2022-12-11T03:31:29;46.42;;;22.38;;
22812;SDS011;11573;51.334;3.244;2022-12-11T03:34:02;43.20;;;22.60;;
22812;SDS011;11573;51.334;3.244;2022-12-11T03:36:36;47.13;;;24.67;;
22812;SDS011;11573;51.334;3.244;2022-12-11T03:39:08;49.63;;;23.52;;
22812;SDS011;11573;51.334;3.244;2022-12-11T03:41:40;46.50;;;23.58;;
22812;SDS011;11573;51.334;3.244;2022-12-11T03:44:11;52.03;;;24.15;;
22812;SDS011;11573;51.334;3.244;2022-12-11T03:46:39;52.78;;;25.63;;
22812;SDS011;11573;51.334;3.244;2022-12-11T03:49:20;51.58;;;23.50;;
22812;SDS011;11573;51.334;3.244;2022-12-11T03:51:52;55.22;;;25.60;;
22812;SDS011;11573;51.334;3.244;2022-12-11T03:54:21;51.45;;;24.33;;
22812;SDS011;11573;51.334;3.244;2022-12-11T03:56:50;54.92;;;25.85;;
22812;SDS011;11573;51.334;3.244;2022-12-11T03:59:20;51.33;;;23.95;;
22812;SDS011;11573;51.334;3.244;2022-12-11T04:01:48;53.22;;;24.40;;
22812;SDS011;11573;51.334;3.244;2022-12-11T04:04:16;51.60;;;24.42;;
22812;SDS011;11573;51.334;3.244;2022-12-11T04:06:43;51.60;;;24.75;;
22812;SDS011;11573;51.334;3.244;2022-12-11T04:09:10;53.17;;;24.80;;
22812;SDS011;11573;51.334;3.244;2022-12-11T04:11:37;49.58;;;24.52;;
22812;SDS011;11573;51.334;3.244;2022-12-11T04:14:06;52.13;;;25.25;;
22812;SDS011;11573;51.334;3.244;2022-12-11T04:16:53;47.90;;;23.48;;
22812;SDS011;11573;51.334;3.244;2022-12-11T04:19:22;53.75;;;26.33;;
22812;SDS011;11573;51.334;3.244;2022-12-11T04:22:12;53.88;;;25.55;;
22812;SDS011;11573;51.334;3.244;2022-12-11T04:24:40;46.22;;;24.70;;
22812;SDS011;11573;51.334;3.244;2022-12-11T04:27:07;57.83;;;27.30;;
22812;SDS011;11573;51.334;3.244;2022-12-11T04:29:34;58.33;;;27.63;;
22812;SDS011;11573;51.334;3.244;2022-12-11T04:32:01;54.83;;;24.92;;
22812;SDS011;11573;51.334;3.244;2022-12-11T04:34:28;55.50;;;26.25;;
22812;SDS011;11573;51.334;3.244;2022-12-11T04:36:55;58.00;;;27.10;;
22812;SDS011;11573;51.334;3.244;2022-12-11T04:39:22;58.80;;;26.42;;
22812;SDS011;11573;51.334;3.244;2022-12-11T04:41:49;61.58;;;28.10;;
22812;SDS011;11573;51.334;3.244;2022-12-11T04:44:16;56.63;;;27.63;;
22812;SDS011;11573;51.334;3.244;2022-12-11T04:46:43;60.90;;;27.02;;
22812;SDS011;11573;51.334;3.244;2022-12-11T04:49:10;56.90;;;27.02;;
22812;SDS011;11573;51.334;3.244;2022-12-11T04:51:37;53.35;;;25.85;;
22812;SDS011;11573;51.334;3.244;2022-12-11T04:54:04;59.28;;;27.67;;
22812;SDS011;11573;51.334;3.244;2022-12-11T04:56:31;56.03;;;27.58;;
22812;SDS011;11573;51.334;3.244;2022-12-11T04:58:58;56.42;;;26.95;;
22812;SDS011;11573;51.334;3.244;2022-12-11T05:01:26;61.20;;;27.33;;
22812;SDS011;11573;51.334;3.244;2022-12-11T05:03:53;55.13;;;27.80;;
22812;SDS011;11573;51.334;3.244;2022-12-11T05:06:19;63.05;;;28.88;;
22812;SDS011;11573;51.334;3.244;2022-12-11T05:08:46;62.00;;;28.92;;
22812;SDS011;11573;51.334;3.244;2022-12-11T05:11:14;60.58;;;28.33;;
22812;SDS011;11573;51.334;3.244;2022-12-11T05:13:41;56.72;;;28.85;;
22812;SDS011;11573;51.334;3.244;2022-12-11T05:16:09;58.33;;;28.63;;
22812;SDS011;11573;51.334;3.244;2022-12-11T05:18:40;56.65;;;29.70;;
22812;SDS011;11573;51.334;3.244;2022-12-11T05:21:11;54.63;;;27.88;;
22812;SDS011;11573;51.334;3.244;2022-12-11T05:23:39;57.47;;;28.65;;
22812;SDS011;11573;51.334;3.244;2022-12-11T05:26:07;60.03;;;29.70;;
22812;SDS011;11573;51.334;3.244;2022-12-11T05:28:38;59.40;;;29.60;;
22812;SDS011;11573;51.334;3.244;2022-12-11T05:31:07;55.53;;;28.35;;
22812;SDS011;11573;51.334;3.244;2022-12-11T05:33:43;58.10;;;29.98;;
22812;SDS011;11573;51.334;3.244;2022-12-11T05:36:15;59.08;;;29.48;;
22812;SDS011;11573;51.334;3.244;2022-12-11T05:38:44;61.25;;;31.58;;
22812;SDS011;11573;51.334;3.244;2022-12-11T05:41:12;61.25;;;30.88;;
22812;SDS011;11573;51.334;3.244;2022-12-11T05:43:41;61.42;;;30.95;;
22812;SDS011;11573;51.334;3.244;2022-12-11T05:46:41;62.25;;;29.92;;
22812;SDS011;11573;51.334;3.244;2022-12-11T05:49:01;64.68;;;31.73;;
22812;SDS011;11573;51.334;3.244;2022-12-11T05:51:28;62.92;;;30.80;;
22812;SDS011;11573;51.334;3.244;2022-12-11T05:53:56;64.47;;;29.58;;
22812;SDS011;11573;51.334;3.244;2022-12-11T05:56:27;62.63;;;30.60;;
22812;SDS011;11573;51.334;3.244;2022-12-11T05:58:56;57.38;;;29.02;;
22812;SDS011;11573;51.334;3.244;2022-12-11T06:03:52;62.45;;;30.77;;
22812;SDS011;11573;51.334;3.244;2022-12-11T06:06:20;55.60;;;29.30;;
22812;SDS011;11573;51.334;3.244;2022-12-11T06:08:48;58.33;;;30.00;;
22812;SDS011;11573;51.334;3.244;2022-12-11T06:11:16;55.45;;;30.17;;
22812;SDS011;11573;51.334;3.244;2022-12-11T06:13:49;61.40;;;30.00;;
22812;SDS011;11573;51.334;3.244;2022-12-11T06:16:17;61.03;;;30.42;;
22812;SDS011;11573;51.334;3.244;2022-12-11T06:18:44;58.72;;;30.00;;
22812;SDS011;11573;51.334;3.244;2022-12-11T06:21:22;56.13;;;29.67;;
22812;SDS011;11573;51.334;3.244;2022-12-11T06:23:52;61.40;;;31.13;;
22812;SDS011;11573;51.334;3.244;2022-12-11T06:26:20;58.53;;;31.60;;
22812;SDS011;11573;51.334;3.244;2022-12-11T06:28:47;58.38;;;30.73;;
22812;SDS011;11573;51.334;3.244;2022-12-11T06:31:16;56.83;;;30.35;;
22812;SDS011;11573;51.334;3.244;2022-12-11T06:33:43;56.20;;;28.35;;
22812;SDS011;11573;51.334;3.244;2022-12-11T06:36:11;55.28;;;29.08;;
22812;SDS011;11573;51.334;3.244;2022-12-11T06:38:40;53.78;;;28.95;;
22812;SDS011;11573;51.334;3.244;2022-12-11T06:41:07;59.80;;;30.17;;
22812;SDS011;11573;51.334;3.244;2022-12-11T06:43:36;52.90;;;29.15;;
22812;SDS011;11573;51.334;3.244;2022-12-11T06:46:04;54.88;;;28.50;;
22812;SDS011;11573;51.334;3.244;2022-12-11T06:48:32;58.22;;;29.25;;
22812;SDS011;11573;51.334;3.244;2022-12-11T06:51:04;50.33;;;28.88;;
22812;SDS011;11573;51.334;3.244;2022-12-11T06:53:35;54.58;;;29.02;;
22812;SDS011;11573;51.334;3.244;2022-12-11T06:56:03;51.10;;;29.20;;
22812;SDS011;11573;51.334;3.244;2022-12-11T06:58:32;54.30;;;29.35;;
22812;SDS011;11573;51.334;3.244;2022-12-11T07:01:01;57.42;;;29.60;;
22812;SDS011;11573;51.334;3.244;2022-12-11T07:03:28;56.33;;;29.80;;
22812;SDS011;11573;51.334;3.244;2022-12-11T07:06:01;53.05;;;28.73;;
22812;SDS011;11573;51.334;3.244;2022-12-11T07:08:29;56.78;;;29.38;;
22812;SDS011;11573;51.334;3.244;2022-12-11T07:11:04;60.97;;;29.88;;
22812;SDS011;11573;51.334;3.244;2022-12-11T07:13:32;54.65;;;29.73;;
22812;SDS011;11573;51.334;3.244;2022-12-11T07:16:01;57.75;;;30.90;;
22812;SDS011;11573;51.334;3.244;2022-12-11T07:18:30;57.40;;;29.77;;
22812;SDS011;11573;51.334;3.244;2022-12-11T07:21:00;53.67;;;29.67;;
22812;SDS011;11573;51.334;3.244;2022-12-11T07:23:27;53.65;;;29.17;;
22812;SDS011;11573;51.334;3.244;2022-12-11T07:25:54;56.60;;;31.23;;
22812;SDS011;11573;51.334;3.244;2022-12-11T07:28:21;55.42;;;30.10;;
22812;SDS011;11573;51.334;3.244;2022-12-11T07:30:49;53.47;;;30.05;;
22812;SDS011;11573;51.334;3.244;2022-12-11T07:33:16;57.88;;;30.40;;
22812;SDS011;11573;51.334;3.244;2022-12-11T07:35:43;56.85;;;30.17;;
22812;SDS011;11573;51.334;3.244;2022-12-11T07:38:10;59.63;;;30.65;;
22812;SDS011;11573;51.334;3.244;2022-12-11T07:40:37;53.25;;;28.33;;
22812;SDS011;11573;51.334;3.244;2022-12-11T07:43:04;52.67;;;28.80;;
22812;SDS011;11573;51.334;3.244;2022-12-11T07:45:31;54.30;;;28.98;;
22812;SDS011;11573;51.334;3.244;2022-12-11T07:47:58;57.60;;;29.55;;
22812;SDS011;11573;51.334;3.244;2022-12-11T07:50:25;54.72;;;28.77;;
22812;SDS011;11573;51.334;3.244;2022-12-11T07:52:51;54.22;;;28.50;;
22812;SDS011;11573;51.334;3.244;2022-12-11T07:55:18;55.53;;;29.42;;
22812;SDS011;11573;51.334;3.244;2022-12-11T07:57:45;55.13;;;29.90;;
22812;SDS011;11573;51.334;3.244;2022-12-11T08:00:12;57.45;;;29.00;;
22812;SDS011;11573;51.334;3.244;2022-12-11T08:02:39;56.45;;;29.10;;
22812;SDS011;11573;51.334;3.244;2022-12-11T08:05:07;54.92;;;27.92;;
22812;SDS011;11573;51.334;3.244;2022-12-11T08:07:34;54.85;;;29.50;;
22812;SDS011;11573;51.334;3.244;2022-12-11T08:10:02;49.75;;;27.70;;
22812;SDS011;11573;51.334;3.244;2022-12-11T08:12:30;53.67;;;28.35;;
22812;SDS011;11573;51.334;3.244;2022-12-11T08:15:00;55.53;;;29.38;;
22812;SDS011;11573;51.334;3.244;2022-12-11T08:17:26;47.85;;;26.52;;
22812;SDS011;11573;51.334;3.244;2022-12-11T08:19:58;49.45;;;27.92;;
22812;SDS011;11573;51.334;3.244;2022-12-11T08:22:24;49.97;;;26.65;;
22812;SDS011;11573;51.334;3.244;2022-12-11T08:24:51;50.47;;;26.60;;
22812;SDS011;11573;51.334;3.244;2022-12-11T08:27:19;49.45;;;27.13;;
22812;SDS011;11573;51.334;3.244;2022-12-11T08:29:46;51.95;;;28.00;;
22812;SDS011;11573;51.334;3.244;2022-12-11T08:32:13;54.55;;;28.10;;
22812;SDS011;11573;51.334;3.244;2022-12-11T08:34:42;52.03;;;27.88;;
22812;SDS011;11573;51.334;3.244;2022-12-11T08:37:09;52.67;;;28.63;;
22812;SDS011;11573;51.334;3.244;2022-12-11T08:39:36;62.30;;;30.42;;
22812;SDS011;11573;51.334;3.244;2022-12-11T08:42:03;63.55;;;31.83;;
22812;SDS011;11573;51.334;3.244;2022-12-11T08:44:30;51.88;;;27.80;;
22812;SDS011;11573;51.334;3.244;2022-12-11T08:46:57;52.70;;;29.73;;
22812;SDS011;11573;51.334;3.244;2022-12-11T08:49:24;60.90;;;29.45;;
22812;SDS011;11573;51.334;3.244;2022-12-11T08:51:56;56.13;;;29.60;;
22812;SDS011;11573;51.334;3.244;2022-12-11T08:54:23;51.10;;;27.02;;
22812;SDS011;11573;51.334;3.244;2022-12-11T08:56:50;53.60;;;28.23;;
22812;SDS011;11573;51.334;3.244;2022-12-11T08:59:23;54.20;;;27.02;;
22812;SDS011;11573;51.334;3.244;2022-12-11T09:01:51;61.40;;;28.65;;
22812;SDS011;11573;51.334;3.244;2022-12-11T09:04:18;52.35;;;28.10;;
22812;SDS011;11573;51.334;3.244;2022-12-11T09:06:44;58.88;;;28.23;;
22812;SDS011;11573;51.334;3.244;2022-12-11T09:09:11;56.25;;;28.67;;
22812;SDS011;11573;51.334;3.244;2022-12-11T09:11:38;54.55;;;29.15;;
22812;SDS011;11573;51.334;3.244;2022-12-11T09:14:05;52.90;;;28.38;;
22812;SDS011;11573;51.334;3.244;2022-12-11T09:16:34;53.42;;;28.25;;
22812;SDS011;11573;51.334;3.244;2022-12-11T09:19:05;55.90;;;28.70;;
22812;SDS011;11573;51.334;3.244;2022-12-11T09:21:34;53.47;;;28.05;;
22812;SDS011;11573;51.334;3.244;2022-12-11T09:24:01;54.58;;;28.05;;
22812;SDS011;11573;51.334;3.244;2022-12-11T09:26:28;53.53;;;27.98;;
22812;SDS011;11573;51.334;3.244;2022-12-11T09:28:56;48.80;;;26.67;;
22812;SDS011;11573;51.334;3.244;2022-12-11T09:31:27;49.70;;;26.40;;
22812;SDS011;11573;51.334;3.244;2022-12-11T09:33:57;46.13;;;25.63;;
22812;SDS011;11573;51.334;3.244;2022-12-11T09:36:29;52.40;;;28.55;;
22812;SDS011;11573;51.334;3.244;2022-12-11T09:39:03;53.33;;;27.58;;
22812;SDS011;11573;51.334;3.244;2022-12-11T09:44:46;52.78;;;28.20;;
22812;SDS011;11573;51.334;3.244;2022-12-11T09:52:38;51.72;;;26.90;;
22812;SDS011;11573;51.334;3.244;2022-12-11T09:55:18;57.65;;;29.25;;
22812;SDS011;11573;51.334;3.244;2022-12-11T10:00:48;50.92;;;27.50;;
22812;SDS011;11573;51.334;3.244;2022-12-11T10:06:21;56.47;;;28.88;;
22812;SDS011;11573;51.334;3.244;2022-12-11T10:17:20;59.50;;;30.15;;
22812;SDS011;11573;51.334;3.244;2022-12-11T10:19:54;53.30;;;28.38;;
22812;SDS011;11573;51.334;3.244;2022-12-11T10:22:24;56.60;;;29.75;;
22812;SDS011;11573;51.334;3.244;2022-12-11T10:24:56;56.78;;;28.58;;
22812;SDS011;11573;51.334;3.244;2022-12-11T10:27:41;54.50;;;28.58;;
22812;SDS011;11573;51.334;3.244;2022-12-11T10:30:22;55.95;;;30.08;;
22812;SDS011;11573;51.334;3.244;2022-12-11T10:40:43;55.35;;;30.55;;
22812;SDS011;11573;51.334;3.244;2022-12-11T10:43:12;58.92;;;30.30;;
22812;SDS011;11573;51.334;3.244;2022-12-11T10:45:48;55.03;;;29.80;;
22812;SDS011;11573;51.334;3.244;2022-12-11T10:48:19;57.65;;;30.67;;
22812;SDS011;11573;51.334;3.244;2022-12-11T10:51:00;58.65;;;29.42;;
22812;SDS011;11573;51.334;3.244;2022-12-11T10:53:31;54.72;;;28.10;;
22812;SDS011;11573;51.334;3.244;2022-12-11T10:55:59;55.72;;;29.38;;
22812;SDS011;11573;51.334;3.244;2022-12-11T10:58:28;57.05;;;30.65;;
22812;SDS011;11573;51.334;3.244;2022-12-11T11:03:31;60.88;;;30.80;;
22812;SDS011;11573;51.334;3.244;2022-12-11T11:08:42;56.28;;;31.30;;
22812;SDS011;11573;51.334;3.244;2022-12-11T11:14:05;56.17;;;30.33;;
22812;SDS011;11573;51.334;3.244;2022-12-11T11:16:37;52.40;;;29.40;;
22812;SDS011;11573;51.334;3.244;2022-12-11T11:19:06;48.70;;;25.83;;
22812;SDS011;11573;51.334;3.244;2022-12-11T11:21:56;48.80;;;26.52;;
22812;SDS011;11573;51.334;3.244;2022-12-11T11:24:40;48.67;;;25.67;;
22812;SDS011;11573;51.334;3.244;2022-12-11T11:27:22;39.60;;;22.30;;
22812;SDS011;11573;51.334;3.244;2022-12-11T11:29:53;45.22;;;22.73;;
22812;SDS011;11573;51.334;3.244;2022-12-11T11:32:26;42.78;;;22.98;;
22812;SDS011;11573;51.334;3.244;2022-12-11T11:37:39;43.50;;;22.27;;
22812;SDS011;11573;51.334;3.244;2022-12-11T11:43:15;43.83;;;23.13;;
22812;SDS011;11573;51.334;3.244;2022-12-11T11:45:58;43.83;;;23.80;;
22812;SDS011;11573;51.334;3.244;2022-12-11T11:49:06;43.70;;;23.63;;
22812;SDS011;11573;51.334;3.244;2022-12-11T11:51:58;50.03;;;28.30;;
22812;SDS011;11573;51.334;3.244;2022-12-11T11:54:29;53.85;;;28.58;;
22812;SDS011;11573;51.334;3.244;2022-12-11T11:57:21;61.17;;;29.50;;
22812;SDS011;11573;51.334;3.244;2022-12-11T11:59:55;60.42;;;30.77;;
22812;SDS011;11573;51.334;3.244;2022-12-11T12:02:37;59.20;;;29.65;;
22812;SDS011;11573;51.334;3.244;2022-12-11T12:05:13;59.55;;;31.40;;
22812;SDS011;11573;51.334;3.244;2022-12-11T12:10:18;58.88;;;29.17;;
22812;SDS011;11573;51.334;3.244;2022-12-11T12:13:01;58.20;;;29.45;;
22812;SDS011;11573;51.334;3.244;2022-12-11T12:16:02;56.45;;;27.50;;
22812;SDS011;11573;51.334;3.244;2022-12-11T12:38:43;60.55;;;30.98;;
22812;SDS011;11573;51.334;3.244;2022-12-11T12:47:09;58.05;;;28.95;;
22812;SDS011;11573;51.334;3.244;2022-12-11T12:49:41;57.63;;;28.58;;
22812;SDS011;11573;51.334;3.244;2022-12-11T12:52:12;62.17;;;30.17;;
22812;SDS011;11573;51.334;3.244;2022-12-11T12:54:45;63.10;;;30.95;;
22812;SDS011;11573;51.334;3.244;2022-12-11T12:57:35;61.95;;;29.10;;
22812;SDS011;11573;51.334;3.244;2022-12-11T13:00:04;54.72;;;26.70;;
22812;SDS011;11573;51.334;3.244;2022-12-11T13:02:48;47.95;;;24.48;;
22812;SDS011;11573;51.334;3.244;2022-12-11T13:05:23;47.10;;;25.42;;
22812;SDS011;11573;51.334;3.244;2022-12-11T13:07:57;47.10;;;25.13;;
22812;SDS011;11573;51.334;3.244;2022-12-11T13:13:31;41.50;;;20.55;;
22812;SDS011;11573;51.334;3.244;2022-12-11T13:16:20;42.75;;;22.10;;
22812;SDS011;11573;51.334;3.244;2022-12-11T13:18:51;40.58;;;21.58;;
22812;SDS011;11573;51.334;3.244;2022-12-11T13:26:49;42.67;;;22.35;;
22812;SDS011;11573;51.334;3.244;2022-12-11T13:34:36;41.75;;;22.88;;
22812;SDS011;11573;51.334;3.244;2022-12-11T13:37:16;43.97;;;23.10;;
22812;SDS011;11573;51.334;3.244;2022-12-11T13:39:50;42.60;;;21.55;;
22812;SDS011;11573;51.334;3.244;2022-12-11T13:42:24;47.03;;;23.23;;
22812;SDS011;11573;51.334;3.244;2022-12-11T13:44:59;42.28;;;22.40;;
22812;SDS011;11573;51.334;3.244;2022-12-11T13:47:27;47.80;;;23.45;;
22812;SDS011;11573;51.334;3.244;2022-12-11T13:50:10;41.20;;;22.33;;
22812;SDS011;11573;51.334;3.244;2022-12-11T13:52:53;42.40;;;22.40;;
22812;SDS011;11573;51.334;3.244;2022-12-11T13:55:22;45.13;;;22.83;;
22812;SDS011;11573;51.334;3.244;2022-12-11T13:57:58;38.75;;;22.35;;
22812;SDS011;11573;51.334;3.244;2022-12-11T14:00:28;45.35;;;22.40;;
22812;SDS011;11573;51.334;3.244;2022-12-11T14:03:00;42.45;;;22.40;;
22812;SDS011;11573;51.334;3.244;2022-12-11T14:05:30;45.30;;;23.02;;
22812;SDS011;11573;51.334;3.244;2022-12-11T14:08:00;48.13;;;23.42;;
22812;SDS011;11573;51.334;3.244;2022-12-11T14:10:32;49.55;;;23.30;;
22812;SDS011;11573;51.334;3.244;2022-12-11T14:15:29;46.00;;;24.33;;
22812;SDS011;11573;51.334;3.244;2022-12-11T14:17:58;40.08;;;22.75;;
22812;SDS011;11573;51.334;3.244;2022-12-11T14:20:27;42.67;;;23.75;;
22812;SDS011;11573;51.334;3.244;2022-12-11T14:23:15;41.35;;;22.08;;
22812;SDS011;11573;51.334;3.244;2022-12-11T14:25:57;41.70;;;21.63;;
22812;SDS011;11573;51.334;3.244;2022-12-11T14:28:27;41.17;;;22.27;;
22812;SDS011;11573;51.334;3.244;2022-12-11T14:31:01;45.50;;;23.13;;
22812;SDS011;11573;51.334;3.244;2022-12-11T14:33:31;49.50;;;25.15;;
22812;SDS011;11573;51.334;3.244;2022-12-11T14:36:02;42.85;;;23.25;;
22812;SDS011;11573;51.334;3.244;2022-12-11T14:38:32;49.03;;;24.55;;
22812;SDS011;11573;51.334;3.244;2022-12-11T14:41:03;45.28;;;23.27;;
22812;SDS011;11573;51.334;3.244;2022-12-11T14:43:41;44.17;;;23.00;;
22812;SDS011;11573;51.334;3.244;2022-12-11T14:46:15;46.88;;;22.65;;
22812;SDS011;11573;51.334;3.244;2022-12-11T14:48:47;44.13;;;23.48;;
22812;SDS011;11573;51.334;3.244;2022-12-11T14:51:27;48.00;;;22.90;;
22812;SDS011;11573;51.334;3.244;2022-12-11T14:54:00;46.97;;;23.00;;
22812;SDS011;11573;51.334;3.244;2022-12-11T14:56:28;46.53;;;23.60;;
22812;SDS011;11573;51.334;3.244;2022-12-11T14:58:57;47.08;;;23.58;;
22812;SDS011;11573;51.334;3.244;2022-12-11T15:01:34;42.50;;;23.80;;
22812;SDS011;11573;51.334;3.244;2022-12-11T15:04:13;44.03;;;22.48;;
22812;SDS011;11573;51.334;3.244;2022-12-11T15:06:50;43.10;;;22.48;;
22812;SDS011;11573;51.334;3.244;2022-12-11T15:09:20;42.58;;;22.77;;
22812;SDS011;11573;51.334;3.244;2022-12-11T15:11:50;43.28;;;22.55;;
22812;SDS011;11573;51.334;3.244;2022-12-11T15:14:19;42.75;;;22.55;;
22812;SDS011;11573;51.334;3.244;2022-12-11T15:16:49;37.85;;;21.35;;
22812;SDS011;11573;51.334;3.244;2022-12-11T15:19:23;34.40;;;18.17;;
22812;SDS011;11573;51.334;3.244;2022-12-11T15:22:00;31.42;;;18.33;;
22812;SDS011;11573;51.334;3.244;2022-12-11T15:24:36;33.50;;;17.70;;
22812;SDS011;11573;51.334;3.244;2022-12-11T15:27:30;35.80;;;18.60;;
22812;SDS011;11573;51.334;3.244;2022-12-11T15:29:58;33.25;;;18.15;;
22812;SDS011;11573;51.334;3.244;2022-12-11T15:32:25;32.28;;;17.73;;
22812;SDS011;11573;51.334;3.244;2022-12-11T15:34:56;31.33;;;18.35;;
22812;SDS011;11573;51.334;3.244;2022-12-11T15:37:29;35.30;;;18.38;;
22812;SDS011;11573;51.334;3.244;2022-12-11T15:39:59;34.15;;;18.45;;
22812;SDS011;11573;51.334;3.244;2022-12-11T15:42:31;32.60;;;18.30;;
22812;SDS011;11573;51.334;3.244;2022-12-11T15:45:04;32.70;;;18.10;;
22812;SDS011;11573;51.334;3.244;2022-12-11T15:47:33;32.10;;;17.65;;
22812;SDS011;11573;51.334;3.244;2022-12-11T15:50:10;34.00;;;18.13;;
22812;SDS011;11573;51.334;3.244;2022-12-11T15:52:42;33.95;;;19.25;;
22812;SDS011;11573;51.334;3.244;2022-12-11T15:55:11;34.08;;;19.58;;
22812;SDS011;11573;51.334;3.244;2022-12-11T15:57:44;36.33;;;18.67;;
22812;SDS011;11573;51.334;3.244;2022-12-11T16:00:15;29.70;;;17.92;;
22812;SDS011;11573;51.334;3.244;2022-12-11T16:02:44;34.72;;;20.10;;
22812;SDS011;11573;51.334;3.244;2022-12-11T16:05:11;37.85;;;19.98;;
22812;SDS011;11573;51.334;3.244;2022-12-11T16:07:40;37.95;;;20.27;;
22812;SDS011;11573;51.334;3.244;2022-12-11T16:10:07;42.13;;;21.48;;
22812;SDS011;11573;51.334;3.244;2022-12-11T16:12:40;40.45;;;23.17;;
22812;SDS011;11573;51.334;3.244;2022-12-11T16:15:09;41.45;;;23.02;;
22812;SDS011;11573;51.334;3.244;2022-12-11T16:17:48;40.20;;;23.08;;
22812;SDS011;11573;51.334;3.244;2022-12-11T16:20:15;47.38;;;26.13;;
22812;SDS011;11573;51.334;3.244;2022-12-11T16:22:43;44.95;;;26.17;;
22812;SDS011;11573;51.334;3.244;2022-12-11T16:25:09;44.60;;;25.30;;